Date,TemperatureHighF,TemperatureAvgF,TemperatureLowF,DewpointHighF,DewpointAvgF,DewpointLowF,HumidityHigh,HumidityAvg,HumidityLow,PressureMaxIn,PressureMinIn,WindSpeedMaxMPH,WindSpeedAvgMPH,GustSpeedMaxMPH,PrecipitationSumIn
2013-6-12,94,83,70,69,65,61,92,57,34,0.00,40.00,0,-999,0,0.00
2013-6-13,96,83,70,69,64,58,86,57,30,0.00,40.00,0,-999,0,0.00
2013-6-14,88,78,68,66,64,61,87,63,45,0.00,40.00,0,-999,0,0.00
2013-6-15,89,79,72,70,66,62,87,64,42,0.00,40.00,0,-999,0,0.03
2013-6-16,96,83,72,69,64,60,80,56,31,0.00,40.00,0,-999,0,0.03
2013-6-17,99,84,69,70,65,60,86,56,29,0.00,40.00,0,-999,0,0.57
2013-6-18,85,76,68,66,63,55,92,67,41,0.00,40.00,0,-999,0,0.61
2013-6-19,96,82,73,69,65,59,82,59,30,0.00,40.00,0,-999,0,0.01
2013-6-20,93,80,72,67,65,62,81,62,36,0.00,40.00,0,-999,0,0.00
2013-6-22,92,87,79,67,63,59,64,46,33,0.00,40.00,0,-999,0,0.00
2013-7-21,95,82,71,70,67,62,88,61,34,0.00,40.00,0,-999,0,0.00
2013-7-22,94,84,74,72,69,63,87,63,36,0.00,40.00,0,-999,0,0.00
2013-7-23,95,85,77,72,68,60,82,59,33,0.00,40.00,0,-999,0,0.00
2013-7-24,97,85,73,71,66,60,83,56,31,0.00,40.00,0,-999,0,0.00
2013-7-25,95,86,75,71,67,63,78,56,35,0.00,40.00,0,-999,0,0.00
2013-7-26,96,85,78,69,66,64,71,55,35,0.00,40.00,0,-999,0,0.00
2013-7-27,90,79,70,66,60,-100,84,58,28,0.00,40.00,0,-999,0,0.00
2013-8-21,91,80,68,67,63,55,86,58,36,0.00,40.00,0,-999,0,0.00
2013-8-22,95,84,71,68,63,58,86,53,30,0.00,40.00,0,-999,0,0.00
2013-8-23,93,80,70,71,67,63,84,65,38,0.00,40.00,0,-999,0,0.46
2013-8-24,95,83,70,69,65,54,93,59,26,0.00,40.00,0,-999,0,0.05
2013-8-25,94,84,72,70,64,58,84,53,30,0.00,40.00,0,-999,0,0.00
2013-8-26,90,81,72,68,64,62,80,58,39,0.00,40.00,0,-999,0,0.00
2013-8-27,77,73,70,69,68,65,94,84,66,0.00,40.00,0,-999,0,0.72
2013-9-11,91,80,70,70,63,53,91,61,28,0.00,40.00,0,-999,0,0.00
2013-9-12,92,78,65,67,60,56,85,57,31,0.00,40.00,0,-999,0,0.00
2013-9-13,94,80,66,63,58,51,82,51,24,0.00,40.00,0,-999,0,0.00
2013-9-14,94,81,65,61,59,57,81,50,30,0.00,40.00,0,-999,0,0.00
2013-9-15,91,82,72,66,62,59,77,54,36,0.00,40.00,0,-999,0,0.00
2013-9-16,91,82,74,68,62,54,75,52,29,0.00,40.00,0,-999,0,0.00
2013-9-17,89,79,73,68,66,62,82,65,41,0.00,40.00,0,-999,0,0.00
2013-9-18,81,80,79,60,60,59,52,50,48,0.00,40.00,0,-999,0,0.00
2013-9-19,81,75,71,71,68,61,96,78,54,0.00,40.00,0,-999,0,1.54
2013-10-21,67,59,51,55,50,48,89,73,59,0.00,40.00,0,-999,0,0.00
2013-10-22,73,57,44,48,36,-100,93,67,23,0.00,40.00,0,-999,0,0.00
2013-10-23,80,59,43,49,43,37,92,64,22,0.00,40.00,0,-999,0,0.00
2013-10-24,78,59,43,49,44,40,93,66,27,0.00,40.00,0,-999,0,0.00
2013-10-25,74,62,49,55,44,-100,89,67,43,0.00,40.00,0,-999,0,0.00
2013-10-26,77,66,59,64,60,55,94,82,56,0.00,40.00,0,-999,0,0.31
2013-10-27,68,61,56,61,55,52,97,82,63,0.00,40.00,0,-999,0,0.18
2013-11-9,72,58,46,53,46,39,89,65,43,0.00,40.00,0,-999,0,0.00
2013-11-10,68,58,46,58,53,46,100,86,64,0.00,40.00,0,-999,0,0.00
2013-11-11,71,56,44,56,51,44,99,85,54,0.00,40.00,0,-999,0,0.00
2013-11-12,57,46,36,53,33,14,96,65,32,0.00,40.00,0,-999,0,0.00
2013-11-13,53,38,22,26,20,14,80,52,28,0.00,40.00,0,-999,0,0.00
2013-11-14,62,47,31,38,30,24,75,54,31,0.00,40.00,0,-999,0,0.00
2013-11-15,51,42,37,43,37,35,94,85,70,0.00,40.00,0,-999,0,0.00
2013-11-16,80,66,53,61,57,51,94,72,45,0.00,40.00,0,-999,0,0.00
2013-11-17,83,68,52,63,48,-100,98,64,19,0.00,40.00,0,-999,0,0.00
2013-11-18,71,62,54,42,38,29,62,41,33,0.00,40.00,0,-999,0,0.00
2013-11-19,71,60,50,44,40,38,67,49,34,0.00,40.00,0,-999,0,0.00
2013-11-20,72,63,54,59,54,44,83,75,63,0.00,40.00,0,-999,0,0.00
2013-11-24,35,34,32,28,26,23,83,75,62,0.00,40.00,0,-999,0,0.06
2013-11-25,37,36,32,32,32,30,93,84,80,0.00,40.00,0,-999,0,0.54
2013-11-26,50,39,30,32,28,23,91,67,37,0.00,40.00,0,-999,0,0.06
2013-11-27,48,36,27,26,20,13,77,54,29,0.00,40.00,0,-999,0,0.00
2013-11-28,57,41,28,29,26,23,91,58,32,0.00,40.00,0,-999,0,0.00
2013-11-29,60,43,26,43,33,23,92,70,45,0.00,40.00,0,-999,0,0.00
2013-11-30,67,52,36,51,46,35,99,82,54,0.00,40.00,0,-999,0,0.00
2013-12-1,65,52,43,55,49,41,99,91,70,0.00,40.00,0,-999,0,0.00
2013-12-5,52,34,26,38,22,12,93,62,42,0.00,40.00,0,-999,0,0.00
2013-12-6,29,24,21,24,18,14,92,79,66,0.00,40.00,0,-999,0,0.00
2013-12-7,23,21,17,14,12,8,72,68,64,0.00,40.00,0,-999,0,0.00
2013-12-8,43,29,22,31,24,14,93,81,62,0.00,40.00,0,-999,0,0.44
2013-12-9,31,29,26,30,27,23,98,94,87,0.00,40.00,0,-999,0,0.02
2013-12-10,43,28,17,26,21,14,89,74,45,0.00,40.00,0,-999,0,0.14
2013-12-11,49,36,28,28,24,22,79,65,40,0.00,40.00,0,-999,0,0.01
2013-12-12,45,42,39,32,30,26,73,63,49,0.00,40.00,0,-999,0,0.00
2013-12-13,46,43,41,36,34,32,73,70,67,0.00,40.00,0,-999,0,0.00
2013-12-14,49,41,29,38,29,23,82,63,39,0.00,40.00,0,-999,0,0.00
2013-12-15,61,37,21,30,24,18,91,66,25,0.00,40.00,0,-999,0,0.00
2013-12-16,67,42,25,31,27,22,88,63,23,0.00,40.00,0,-999,0,0.00
2013-12-30,47,33,23,26,22,18,86,65,39,0.00,40.00,0,-999,0,0.00
2013-12-31,58,40,22,30,27,20,92,62,34,0.00,40.00,0,-999,0,0.00
2014-1-1,70,50,29,42,31,-100,91,59,31,0.00,40.00,0,-999,0,0.00
2014-1-2,46,33,24,24,20,17,84,61,35,0.00,40.00,0,-999,0,0.00